Time;durP1;ratioP1;P1;durP2;ratioP2;P2;SDS_P1;SDS_P2;PMS_P1;PMS_P2;Temp;Humidity;BMP_temperature;BMP_pressure;BME280_temperature;BME280_humidity;BME280_pressure;Samples;Min_cycle;Max_cycle;Signal;HPM_P1;HPM_P2
2023/04/01 00:00:12;;;;;;;12.40;10.30;;;;;;;2.81;88.92;148022.16;5004076;28;20311;-66
2023/04/01 00:02:37;;;;;;;13.00;10.43;;;;;;;2.83;88.09;148028.53;5021915;28;20038;-67
2023/04/01 00:05:03;;;;;;;11.57;9.43;;;;;;;2.82;88.42;148024.72;5021682;28;20037;-67
2023/04/01 00:07:29;;;;;;;13.68;11.05;;;;;;;2.77;88.23;148013.25;5021118;28;20042;-67
2023/04/01 00:09:55;;;;;;;12.35;10.05;;;;;;;2.78;88.33;148015.81;5006810;28;20084;-69
2023/04/01 00:12:20;;;;;;;13.25;10.57;;;;;;;2.75;88.30;148008.13;5025510;28;20029;-68
2023/04/01 00:14:46;;;;;;;13.95;11.30;;;;;;;2.73;88.75;148003.06;5021469;28;20023;-69
2023/04/01 00:17:11;;;;;;;13.40;11.38;;;;;;;2.71;88.75;147997.97;5017802;28;20053;-70
2023/04/01 00:19:37;;;;;;;13.55;11.32;;;;;;;2.69;88.62;147992.84;5024736;28;20096;-66
2023/04/01 00:22:03;;;;;;;12.32;10.10;;;;;;;2.70;89.02;147996.66;5025488;28;20029;-68
2023/04/01 00:24:28;;;;;;;14.77;10.63;;;;;;;2.72;88.88;148000.50;5025430;28;20040;-68
2023/04/01 00:26:55;;;;;;;13.90;10.48;;;;;;;2.75;88.55;148009.44;5025401;28;20045;-67
2023/04/01 00:29:20;;;;;;;13.40;11.02;;;;;;;2.75;88.68;148008.13;5025019;28;20245;-67
2023/04/01 00:31:46;;;;;;;12.57;10.13;;;;;;;2.70;88.94;147996.66;5025077;28;20029;-66
2023/04/01 00:34:12;;;;;;;13.88;10.93;;;;;;;2.74;88.51;148005.59;4988284;28;20041;-65
2023/04/01 00:36:38;;;;;;;13.70;10.70;;;;;;;2.74;88.47;148006.88;5009765;28;20034;-67
2023/04/01 00:39:03;;;;;;;11.55;9.60;;;;;;;2.82;88.22;148026.00;5015736;28;20026;-66
2023/04/01 00:41:29;;;;;;;15.50;11.40;;;;;;;2.83;88.51;148028.53;5025137;28;20040;-67
2023/04/01 00:44:16;;;;;;;13.27;11.18;;;;;;;2.79;88.36;148018.31;5024375;28;20042;-67
2023/04/01 00:46:41;;;;;;;15.20;11.18;;;;;;;2.73;88.39;148004.31;5016196;28;20243;-67
2023/04/01 00:49:07;;;;;;;15.90;11.80;;;;;;;2.75;88.02;148008.13;5024587;28;20064;-65
2023/04/01 00:51:35;;;;;;;15.93;12.68;;;;;;;2.75;88.62;148009.44;5025177;28;20030;-66
2023/04/01 00:54:03;;;;;;;15.95;12.25;;;;;;;2.72;88.56;148001.78;5034875;28;20091;-67
2023/04/01 00:56:36;;;;;;;14.30;11.95;;;;;;;2.65;88.72;147982.66;5038430;28;20113;-67
2023/04/01 00:59:08;;;;;;;16.52;12.63;;;;;;;2.76;88.40;148010.69;5024877;28;20026;-67
2023/04/01 01:01:35;;;;;;;16.02;12.68;;;;;;;2.67;88.61;147989.03;5024760;28;20049;-66
2023/04/01 01:04:02;;;;;;;17.85;13.32;;;;;;;2.75;88.55;148009.44;5024431;28;20040;-68
2023/04/01 01:07:06;;;;;;;15.95;13.43;;;;;;;2.78;88.49;148015.81;5024656;28;20056;-67
2023/04/01 01:09:50;;;;;;;18.63;13.20;;;;;;;2.68;88.57;147990.28;4925906;29;20044;-68
2023/04/01 01:12:32;;;;;;;15.60;12.02;;;;;;;2.81;88.33;148023.44;4925805;29;20048;-67
2023/04/01 01:15:21;;;;;;;17.13;14.33;;;;;;;2.83;88.65;148027.25;4925361;29;20103;-66
2023/04/01 01:17:49;;;;;;;19.73;15.90;;;;;;;2.79;88.32;148017.06;4910119;29;20462;-67
2023/04/01 01:20:59;;;;;;;18.42;14.38;;;;;;;2.77;88.92;148013.25;4925649;29;20048;-67
2023/04/01 01:23:42;;;;;;;17.90;14.00;;;;;;;2.74;88.51;148006.88;4925620;29;20043;-68
2023/04/01 01:26:29;;;;;;;18.08;13.30;;;;;;;2.73;89.18;148004.31;4925358;29;20095;-67
2023/04/01 01:29:30;;;;;;;16.90;13.55;;;;;;;2.72;89.38;148001.78;4925682;29;20281;-65
2023/04/01 01:32:17;;;;;;;17.80;15.07;;;;;;;2.66;89.27;147985.22;4924965;29;20040;-66
2023/04/01 01:35:17;;;;;;;18.50;15.95;;;;;;;2.70;89.57;147996.66;4925534;29;20334;-66
2023/04/01 01:37:45;;;;;;;17.83;14.70;;;;;;;2.73;89.37;148003.06;4925320;29;20032;-66
2023/04/01 01:40:13;;;;;;;22.05;15.65;;;;;;;2.72;89.02;148000.50;4973567;28;20045;-67
2023/04/01 01:42:45;;;;;;;20.20;15.55;;;;;;;2.66;89.78;147985.22;5024002;28;20025;-67
2023/04/01 01:45:17;;;;;;;17.02;13.70;;;;;;;2.28;89.39;147892.22;5023970;28;20026;-66
2023/04/01 01:47:44;;;;;;;16.48;13.80;;;;;;;2.73;89.71;148003.06;5013893;28;20195;-67
2023/04/01 01:50:11;;;;;;;19.13;15.23;;;;;;;2.70;89.62;147995.41;5023864;28;20022;-67
2023/04/01 01:52:37;;;;;;;16.25;13.50;;;;;;;2.73;89.00;148003.06;5023823;28;20322;-67
2023/04/01 01:55:02;;;;;;;18.92;14.57;;;;;;;2.68;89.56;147991.59;5023701;28;20121;-66
2023/04/01 01:57:34;;;;;;;17.35;14.02;;;;;;;2.70;89.24;147995.41;5036300;28;20064;-67
2023/04/01 02:00:12;;;;;;;21.27;15.45;;;;;;;2.59;89.26;147968.63;5034229;28;20042;-65
2023/04/01 02:02:40;;;;;;;19.35;16.15;;;;;;;2.58;89.59;147966.13;5023564;28;20041;-66
2023/04/01 02:05:10;;;;;;;16.92;13.13;;;;;;;2.65;89.64;147982.66;5023677;28;20040;-66
2023/04/01 02:07:39;;;;;;;17.50;13.40;;;;;;;2.59;89.24;147968.63;5023138;28;20311;-65
2023/04/01 02:10:06;;;;;;;16.52;13.95;;;;;;;2.73;89.27;148004.31;5023370;28;20101;-68
2023/04/01 02:12:34;;;;;;;17.05;13.55;;;;;;;2.78;89.68;148014.50;5023413;28;20083;-65
2023/04/01 02:15:08;;;;;;;20.27;14.85;;;;;;;2.62;89.35;147975.00;5023354;28;20029;-66
2023/04/01 02:17:35;;;;;;;20.10;14.93;;;;;;;2.56;89.41;147962.25;5022702;28;20042;-66
2023/04/01 02:20:06;;;;;;;17.65;13.90;;;;;;;2.61;89.46;147972.44;5023148;28;20021;-66
2023/04/01 02:22:38;;;;;;;16.73;13.43;;;;;;;2.59;89.81;147969.94;5022314;28;20036;-64
2023/04/01 02:25:10;;;;;;;18.88;14.88;;;;;;;2.66;89.76;147985.22;5005309;28;20033;-66
2023/04/01 02:27:37;;;;;;;18.90;14.27;;;;;;;2.80;89.16;148019.63;5022981;28;20025;-65
2023/04/01 02:30:03;;;;;;;17.10;13.80;;;;;;;2.84;89.25;148031.09;5022951;28;20026;-66
2023/04/01 02:32:31;;;;;;;17.52;14.23;;;;;;;2.88;89.07;148041.28;5021987;28;20433;-64
2023/04/01 02:34:58;;;;;;;16.65;14.15;;;;;;;2.89;88.91;148043.84;5023090;28;20034;-66
2023/04/01 02:37:24;;;;;;;16.13;13.43;;;;;;;2.94;88.69;148055.31;5022829;28;20022;-65
2023/04/01 02:39:50;;;;;;;17.02;14.45;;;;;;;2.94;89.04;148055.31;5022318;28;20093;-66
2023/04/01 02:42:15;;;;;;;17.33;14.38;;;;;;;2.92;88.79;148051.50;5022932;28;20036;-65
2023/04/01 02:44:41;;;;;;;17.75;13.90;;;;;;;2.96;89.07;148060.38;5005339;28;20265;-65
2023/04/01 02:47:06;;;;;;;17.50;14.82;;;;;;;2.92;89.05;148050.19;5022505;28;20033;-65
2023/04/01 02:49:32;;;;;;;16.92;14.38;;;;;;;2.96;89.38;148059.13;5022592;28;20021;-66
2023/04/01 02:51:58;;;;;;;19.33;15.13;;;;;;;2.95;89.30;148057.88;5022362;28;20061;-65
2023/04/01 02:54:23;;;;;;;22.27;15.35;;;;;;;2.90;88.59;148046.38;5022671;28;20038;-64
2023/04/01 02:56:49;;;;;;;21.75;16.83;;;;;;;2.90;88.67;148046.38;5029258;28;20017;-66
2023/04/01 02:59:14;;;;;;;18.67;15.68;;;;;;;2.91;89.14;148047.66;5039874;28;20083;-64
2023/04/01 03:01:40;;;;;;;20.65;15.60;;;;;;;2.84;88.78;148031.09;5022631;28;20210;-64
2023/04/01 03:04:06;;;;;;;20.40;15.65;;;;;;;2.96;89.40;148059.13;5021995;28;20321;-64
2023/04/01 03:06:31;;;;;;;21.35;16.98;;;;;;;2.73;89.13;148003.06;5022313;28;20401;-64
2023/04/01 03:08:57;;;;;;;21.13;16.38;;;;;;;2.92;89.11;148050.19;5022388;28;20056;-64
2023/04/01 03:11:23;;;;;;;22.27;17.83;;;;;;;2.94;89.12;148056.56;5022555;28;20037;-63
2023/04/01 03:13:48;;;;;;;21.33;16.08;;;;;;;2.91;88.85;148048.94;5022440;28;20092;-65
2023/04/01 03:16:14;;;;;;;21.85;15.40;;;;;;;2.94;89.03;148056.56;5021801;28;20097;-63
2023/04/01 03:18:40;;;;;;;18.33;15.75;;;;;;;2.96;89.00;148059.13;5022048;28;20317;-65
2023/04/01 03:21:18;;;;;;;18.33;14.77;;;;;;;2.99;88.72;148068.03;5022423;28;20022;-65
2023/04/01 03:23:44;;;;;;;21.33;15.85;;;;;;;2.99;89.01;148066.78;5022052;28;20030;-64
2023/04/01 03:26:10;;;;;;;18.13;14.27;;;;;;;3.06;88.64;148085.88;5022082;28;20036;-66
2023/04/01 03:28:36;;;;;;;18.38;14.88;;;;;;;3.04;88.36;148079.53;5021704;28;20214;-63
2023/04/01 03:31:01;;;;;;;17.52;13.93;;;;;;;3.02;88.62;148074.41;5022184;28;20089;-65
2023/04/01 03:33:27;;;;;;;17.23;14.13;;;;;;;2.96;89.12;148059.13;5022256;28;20180;-64
2023/04/01 03:35:52;;;;;;;17.13;14.13;;;;;;;3.03;89.44;148076.97;5022092;28;20030;-65
2023/04/01 03:38:18;;;;;;;19.50;15.07;;;;;;;3.06;88.37;148084.59;5021517;28;21657;-66
2023/04/01 03:40:45;;;;;;;15.65;13.32;;;;;;;3.09;88.87;148093.56;5022245;28;20032;-66
2023/04/01 03:43:11;;;;;;;18.52;13.82;;;;;;;3.10;88.52;148094.81;5022170;28;20090;-65
2023/04/01 03:45:46;;;;;;;19.88;15.50;;;;;;;2.99;88.23;148068.03;5026093;28;20022;-66
2023/04/01 03:48:13;;;;;;;16.58;13.88;;;;;;;3.05;88.59;148082.03;5015769;28;20052;-64
2023/04/01 03:50:39;;;;;;;17.63;14.23;;;;;;;3.10;88.73;148096.06;5025948;28;20026;-66
2023/04/01 03:53:05;;;;;;;14.95;13.32;;;;;;;3.08;89.26;148089.75;5026114;28;20036;-64
2023/04/01 03:55:30;;;;;;;16.77;14.20;;;;;;;3.10;89.16;148094.81;5025576;28;20030;-67
2023/04/01 03:57:56;;;;;;;17.30;13.93;;;;;;;3.09;88.83;148092.25;5041412;28;20033;-66
2023/04/01 04:00:22;;;;;;;20.38;14.23;;;;;;;3.13;89.01;148101.19;5033261;28;20049;-67
2023/04/01 04:02:48;;;;;;;19.35;14.43;;;;;;;3.01;89.20;148071.91;5025541;28;20076;-67
2023/04/01 04:05:14;;;;;;;14.23;12.73;;;;;;;3.10;89.23;148096.06;5025519;28;20029;-66
2023/04/01 04:07:39;;;;;;;16.58;13.48;;;;;;;3.05;89.07;148082.03;5026081;28;20109;-68
2023/04/01 04:10:06;;;;;;;17.33;13.70;;;;;;;3.07;89.16;148087.19;5025647;28;20080;-66
2023/04/01 04:12:31;;;;;;;16.25;13.25;;;;;;;3.05;88.30;148082.03;5025364;28;20033;-65
2023/04/01 04:14:57;;;;;;;15.93;13.10;;;;;;;3.09;88.52;148093.56;5025495;28;20282;-66
2023/04/01 04:17:22;;;;;;;13.85;12.27;;;;;;;3.13;88.25;148102.47;5025620;28;20068;-66
2023/04/01 04:19:48;;;;;;;16.90;13.15;;;;;;;3.04;88.88;148079.53;5025194;28;20037;-66
2023/04/01 04:22:14;;;;;;;17.55;14.15;;;;;;;3.06;88.82;148084.59;5025412;28;20092;-67
2023/04/01 04:24:39;;;;;;;16.05;13.23;;;;;;;3.09;88.94;148092.25;5025423;28;20033;-67
2023/04/01 04:27:05;;;;;;;16.30;13.57;;;;;;;2.94;88.24;148056.56;5025556;28;20026;-66
2023/04/01 04:29:30;;;;;;;16.48;13.40;;;;;;;3.02;89.19;148075.72;5025082;28;20037;-65
2023/04/01 04:31:56;;;;;;;17.60;14.25;;;;;;;2.93;88.65;148054.00;5025335;28;20041;-65
2023/04/01 04:34:22;;;;;;;18.35;14.85;;;;;;;2.86;89.05;148036.16;5025309;28;20041;-66
2023/04/01 04:36:48;;;;;;;18.67;14.77;;;;;;;2.70;89.21;147995.41;5023789;28;20374;-67
2023/04/01 04:39:15;;;;;;;17.55;14.57;;;;;;;2.73;88.98;148003.06;5025360;28;20029;-69
2023/04/01 04:41:41;;;;;;;18.17;14.73;;;;;;;2.76;89.26;148010.69;5024623;28;20026;-68
2023/04/01 04:44:06;;;;;;;20.88;14.38;;;;;;;2.92;90.13;148051.50;5024625;28;20029;-68
2023/04/01 04:46:32;;;;;;;17.58;14.00;;;;;;;3.00;89.01;148069.34;5018320;28;20234;-68
2023/04/01 04:48:58;;;;;;;18.15;14.80;;;;;;;3.05;89.24;148082.03;5020857;28;20033;-67
2023/04/01 04:51:23;;;;;;;21.55;14.98;;;;;;;3.11;89.31;148097.38;5024572;28;20070;-70
2023/04/01 04:53:50;;;;;;;19.38;15.85;;;;;;;3.01;88.77;148073.16;5024857;28;20048;-68
2023/04/01 04:56:22;;;;;;;20.15;14.88;;;;;;;3.16;89.24;148110.09;5025284;28;20046;-70
2023/04/01 04:58:48;;;;;;;19.83;15.48;;;;;;;3.21;89.07;148122.88;5044434;28;20088;-68
2023/04/01 05:01:16;;;;;;;19.15;15.73;;;;;;;3.21;89.08;148121.59;5026769;28;20041;-69
2023/04/01 05:03:42;;;;;;;18.90;15.95;;;;;;;3.23;89.59;148127.94;5024342;28;20096;-66
2023/04/01 05:06:09;;;;;;;21.98;16.90;;;;;;;3.14;89.18;148105.03;5023984;28;20052;-68
2023/04/01 05:08:35;;;;;;;21.02;16.73;;;;;;;2.99;88.92;148066.78;5006953;28;20083;-67
2023/04/01 05:11:02;;;;;;;22.08;17.73;;;;;;;2.92;89.35;148050.19;5024126;28;20049;-68
2023/04/01 05:13:28;;;;;;;22.23;16.27;;;;;;;2.72;89.47;148000.50;5024615;28;20089;-66
2023/04/01 05:15:54;;;;;;;21.13;17.08;;;;;;;2.49;89.85;147943.16;5024463;28;20068;-66
2023/04/01 05:18:20;;;;;;;22.25;16.83;;;;;;;2.77;89.91;148013.25;5024149;28;20030;-68
2023/04/01 05:20:51;;;;;;;22.95;17.00;;;;;;;2.62;90.32;147975.00;5023009;28;20030;-68
2023/04/01 05:23:20;;;;;;;21.40;16.00;;;;;;;2.72;90.58;148001.78;5006684;28;20303;-66
2023/04/01 05:25:46;;;;;;;21.42;16.98;;;;;;;2.82;91.08;148026.00;5023368;28;20443;-66
2023/04/01 05:28:11;;;;;;;21.27;16.60;;;;;;;2.78;89.94;148014.50;5024330;28;20036;-66
2023/04/01 05:30:40;;;;;;;21.80;16.17;;;;;;;2.73;89.98;148003.06;5023150;28;20214;-66
2023/04/01 05:33:05;;;;;;;21.77;16.65;;;;;;;2.86;90.46;148036.16;5024060;28;20038;-66
2023/04/01 05:35:31;;;;;;;21.08;16.75;;;;;;;2.82;90.07;148024.72;5024102;28;20076;-69
2023/04/01 05:37:57;;;;;;;22.95;17.83;;;;;;;2.96;89.98;148059.13;5023134;28;20044;-69
2023/04/01 05:40:22;;;;;;;17.95;15.25;;;;;;;3.17;90.00;148112.66;5006208;28;20037;-67
2023/04/01 05:42:48;;;;;;;22.63;17.15;;;;;;;3.32;89.15;148148.34;5023821;28;20195;-68
2023/04/01 05:45:15;;;;;;;23.02;16.80;;;;;;;3.31;89.40;148145.78;5023649;28;20057;-68
2023/04/01 05:47:42;;;;;;;19.48;16.20;;;;;;;3.44;89.72;148180.22;5023847;28;20040;-67
2023/04/01 05:50:10;;;;;;;20.33;16.45;;;;;;;3.50;88.35;148194.25;5024106;28;20030;-65
2023/04/01 05:52:36;;;;;;;21.00;16.70;;;;;;;3.53;89.14;148200.63;4987354;28;20053;-65
2023/04/01 05:55:01;;;;;;;21.83;17.00;;;;;;;3.63;88.42;148227.44;5019628;28;20211;-67
2023/04/01 05:57:28;;;;;;;18.45;16.15;;;;;;;3.81;88.48;148270.78;5033994;28;20033;-67
2023/04/01 05:59:53;;;;;;;20.88;16.52;;;;;;;3.77;88.01;148261.84;5037412;28;20033;-66
2023/04/01 06:02:19;;;;;;;21.85;16.38;;;;;;;3.77;87.31;148260.56;5023627;28;20026;-67
2023/04/01 06:04:45;;;;;;;20.55;16.45;;;;;;;3.92;87.85;148297.53;5020171;28;20033;-68
2023/04/01 06:07:17;;;;;;;19.98;15.82;;;;;;;3.88;88.09;148288.66;5022723;28;20057;-67
2023/04/01 06:09:44;;;;;;;20.40;15.77;;;;;;;3.91;88.67;148296.28;5019287;28;20048;-65
2023/04/01 06:12:42;;;;;;;20.08;16.80;;;;;;;4.06;87.86;148332.00;5022986;28;20295;-67
2023/04/01 06:15:23;;;;;;;21.30;16.08;;;;;;;4.08;87.51;148337.13;5005578;28;20057;-66
2023/04/01 06:18:03;;;;;;;19.58;15.60;;;;;;;4.10;87.67;148342.22;5005624;28;20045;-68
2023/04/01 06:20:49;;;;;;;21.40;16.52;;;;;;;3.87;86.53;148284.81;5023082;28;20034;-65
2023/04/01 06:23:18;;;;;;;20.10;15.77;;;;;;;3.78;87.56;148263.13;5005531;28;20222;-66
2023/04/01 06:26:02;;;;;;;20.40;15.13;;;;;;;3.85;88.03;148279.69;5023229;28;20033;-68
2023/04/01 06:28:54;;;;;;;17.92;15.32;;;;;;;4.05;88.00;148330.75;5023110;28;20055;-68
2023/04/01 06:31:43;;;;;;;19.33;15.43;;;;;;;3.78;87.83;148263.13;5022970;28;20089;-67
2023/04/01 06:34:24;;;;;;;22.83;16.77;;;;;;;3.76;88.41;148258.00;4995076;28;20041;-67
2023/04/01 06:37:10;;;;;;;21.40;16.65;;;;;;;3.82;88.84;148272.03;5022776;28;20069;-67
2023/04/01 06:39:47;;;;;;;20.55;16.40;;;;;;;3.84;88.90;148277.19;5023023;28;20060;-67
2023/04/01 06:42:19;;;;;;;28.92;17.33;;;;;;;3.72;88.45;148249.13;5022895;28;20029;-67
2023/04/01 06:44:45;;;;;;;19.40;15.93;;;;;;;3.87;88.23;148286.06;5022905;28;20076;-66
2023/04/01 06:47:36;;;;;;;19.73;15.73;;;;;;;3.59;88.02;148215.94;5022958;28;20464;-66
2023/04/01 06:50:23;;;;;;;25.45;16.88;;;;;;;3.78;88.32;148263.13;5003113;28;20089;-66
2023/04/01 06:53:19;;;;;;;20.70;16.20;;;;;;;3.92;88.17;148298.84;5003179;28;20303;-65
2023/04/01 06:56:07;;;;;;;22.05;15.90;;;;;;;3.89;88.39;148289.91;5005634;28;20042;-66
2023/04/01 06:59:05;;;;;;;21.38;15.85;;;;;;;4.17;88.52;148358.81;5022377;28;20029;-66
2023/04/01 07:01:37;;;;;;;22.38;16.77;;;;;;;4.32;88.84;148397.09;4995350;28;20146;-70
2023/04/01 07:04:12;;;;;;;20.00;15.15;;;;;;;4.42;87.60;148421.34;5018016;28;20044;-67
2023/04/01 07:06:53;;;;;;;21.17;16.40;;;;;;;4.43;86.41;148425.19;5022740;28;20053;-67
2023/04/01 07:09:27;;;;;;;19.58;16.55;;;;;;;4.42;86.98;148421.34;5022782;28;20384;-68
2023/04/01 07:11:59;;;;;;;21.02;16.35;;;;;;;4.51;87.88;148443.03;5022239;28;20041;-68
2023/04/01 07:14:37;;;;;;;22.10;17.38;;;;;;;4.57;87.82;148459.59;5021807;28;20527;-68
2023/04/01 07:17:14;;;;;;;21.23;17.20;;;;;;;4.03;86.55;148325.63;5009561;28;20094;-67
2023/04/01 07:19:45;;;;;;;23.35;17.48;;;;;;;4.32;87.38;148398.34;5021895;28;20187;-68
2023/04/01 07:22:32;;;;;;;22.60;16.80;;;;;;;4.40;87.19;148417.47;5022292;28;20026;-66
2023/04/01 07:25:04;;;;;;;20.67;17.40;;;;;;;4.41;86.78;148418.78;5022633;28;20033;-66
2023/04/01 07:27:30;;;;;;;19.23;16.52;;;;;;;4.26;86.52;148381.75;5022449;28;20026;-67
2023/04/01 07:29:57;;;;;;;22.40;17.83;;;;;;;4.44;86.88;148427.69;5022395;28;20041;-66
2023/04/01 07:32:36;;;;;;;21.77;18.15;;;;;;;4.58;87.66;148460.91;5022463;28;20122;-65
2023/04/01 07:35:15;;;;;;;23.45;17.55;;;;;;;4.64;86.96;148476.22;5022651;28;20061;-66
2023/04/01 07:37:46;;;;;;;24.10;18.35;;;;;;;4.75;86.89;148503.03;5002639;28;20030;-67
2023/04/01 07:40:27;;;;;;;21.17;16.92;;;;;;;4.39;86.43;148413.66;5018341;28;20096;-65
2023/04/01 07:42:59;;;;;;;21.13;15.95;;;;;;;4.51;86.44;148443.03;5022206;28;20037;-66
2023/04/01 07:45:38;;;;;;;20.13;15.57;;;;;;;4.59;87.23;148463.41;5022356;28;20029;-66
2023/04/01 07:48:13;;;;;;;19.88;16.30;;;;;;;4.77;87.04;148508.13;5022115;28;20100;-68
2023/04/01 07:50:48;;;;;;;24.27;17.38;;;;;;;4.74;87.14;148501.72;5004702;28;20026;-65
2023/04/01 07:53:30;;;;;;;19.23;14.52;;;;;;;4.89;86.34;148538.78;5022354;28;20033;-67
2023/04/01 07:56:10;;;;;;;21.63;16.42;;;;;;;4.71;86.68;148492.81;5001217;28;20343;-67
2023/04/01 07:59:02;;;;;;;21.08;16.17;;;;;;;4.75;85.34;148503.03;5040679;28;20340;-66
2023/04/01 08:01:45;;;;;;;20.52;15.68;;;;;;;4.79;84.88;148514.50;5006503;28;20446;-67
2023/04/01 08:04:38;;;;;;;21.63;15.05;;;;;;;5.07;84.85;148582.16;5021980;28;20057;-65
2023/04/01 08:07:13;;;;;;;16.80;13.90;;;;;;;5.34;84.64;148651.16;5010605;28;20310;-67
2023/04/01 08:09:51;;;;;;;24.63;15.50;;;;;;;5.62;83.55;148720.09;5013697;28;20103;-66
2023/04/01 08:12:47;;;;;;;17.83;15.13;;;;;;;5.56;83.77;148703.47;5021907;28;20361;-67
2023/04/01 08:15:42;;;;;;;21.55;15.63;;;;;;;6.13;84.20;148846.63;5021830;28;20034;-68
2023/04/01 08:18:20;;;;;;;20.75;14.93;;;;;;;6.68;82.98;148982.13;5007798;28;20073;-67
2023/04/01 08:20:50;;;;;;;19.23;14.30;;;;;;;6.65;78.88;148974.44;5021319;28;20040;-67
2023/04/01 08:23:21;;;;;;;21.77;13.65;;;;;;;6.67;78.37;148980.84;5021219;28;20323;-66
2023/04/01 08:26:09;;;;;;;16.08;13.35;;;;;;;6.87;78.95;149029.47;5021289;28;20026;-66
2023/04/01 08:28:44;;;;;;;18.33;14.55;;;;;;;6.88;78.97;149033.28;5002611;28;20218;-70
2023/04/01 08:31:22;;;;;;;20.15;14.48;;;;;;;6.90;78.92;149038.38;5022756;28;20030;-67
2023/04/01 08:33:52;;;;;;;17.50;14.02;;;;;;;7.08;78.25;149083.16;5022803;28;20049;-67
2023/04/01 08:36:41;;;;;;;17.90;13.38;;;;;;;7.07;78.10;149079.31;5021793;28;20040;-68
2023/04/01 08:39:15;;;;;;;16.77;13.35;;;;;;;7.25;77.48;149125.38;5022565;28;20060;-67
2023/04/01 08:41:56;;;;;;;17.77;13.35;;;;;;;7.32;74.28;149140.69;5023796;28;20026;-66
2023/04/01 08:44:51;;;;;;;15.05;13.10;;;;;;;7.12;73.13;149092.09;5024414;28;20049;-66
2023/04/01 08:47:25;;;;;;;16.33;12.90;;;;;;;7.10;74.52;149087.00;5024589;28;20068;-66
2023/04/01 08:50:12;;;;;;;16.77;14.07;;;;;;;7.14;74.72;149097.22;5015831;28;20030;-68
2023/04/01 08:53:00;;;;;;;14.73;12.90;;;;;;;7.53;76.88;149193.16;5019861;28;20057;-66
2023/04/01 08:56:13;;;;;;;17.58;14.13;;;;;;;7.35;74.84;149149.63;5024311;28;20045;-67
2023/04/01 08:59:09;;;;;;;17.30;13.48;;;;;;;7.39;72.03;149159.88;4965973;28;20117;-68
2023/04/01 09:01:56;;;;;;;19.60;13.65;;;;;;;7.66;72.16;149225.16;5020047;28;20057;-66
2023/04/01 09:04:50;;;;;;;18.70;14.50;;;;;;;7.61;71.93;149213.66;5006189;28;20088;-66
2023/04/01 09:07:41;;;;;;;21.42;15.07;;;;;;;7.81;72.55;149262.22;5024753;28;20064;-66
2023/04/01 09:10:31;;;;;;;17.83;14.25;;;;;;;8.02;70.80;149314.72;5023717;28;20060;-66
2023/04/01 09:13:19;;;;;;;17.25;13.50;;;;;;;8.19;71.52;149356.94;5024562;28;20075;-65
2023/04/01 09:15:54;;;;;;;17.98;13.93;;;;;;;7.69;69.17;149232.81;5024596;28;20056;-66
2023/04/01 09:18:38;;;;;;;20.10;15.25;;;;;;;7.82;71.89;149266.06;5007188;28;20349;-66
2023/04/01 09:21:22;;;;;;;16.70;13.95;;;;;;;8.05;71.36;149323.69;5022601;28;20021;-67
2023/04/01 09:24:09;;;;;;;18.00;14.55;;;;;;;8.14;68.72;149345.44;4998904;28;20038;-66
2023/04/01 09:27:03;;;;;;;16.67;14.32;;;;;;;8.42;68.41;149414.53;5024085;28;20049;-65
2023/04/01 09:30:07;;;;;;;18.23;15.15;;;;;;;8.83;67.19;149517.03;5022834;28;20318;-65
2023/04/01 09:32:48;;;;;;;16.90;14.13;;;;;;;9.23;66.19;149616.94;5023492;28;20038;-65
2023/04/01 09:35:22;;;;;;;19.23;14.02;;;;;;;9.17;65.12;149601.59;5021969;28;20130;-65
2023/04/01 09:38:24;;;;;;;18.38;13.50;;;;;;;8.94;64.83;149545.22;5022730;28;20243;-67
2023/04/01 09:40:55;;;;;;;17.95;12.88;;;;;;;8.83;63.07;149517.03;5022627;28;20107;-67
2023/04/01 09:43:30;;;;;;;16.65;11.35;;;;;;;8.84;60.48;149519.63;5003983;28;20030;-69
2023/04/01 09:46:18;;;;;;;15.18;11.68;;;;;;;8.94;63.89;149543.94;5019695;28;20040;-66
2023/04/01 09:49:03;;;;;;;17.35;12.45;;;;;;;8.46;60.50;149426.16;5020133;28;20038;-64
2023/04/01 09:51:40;;;;;;;16.83;12.05;;;;;;;8.28;59.93;149381.28;5021952;28;20392;-64
2023/04/01 09:54:18;;;;;;;18.88;12.60;;;;;;;8.42;62.26;149415.84;5015484;28;20041;-64
2023/04/01 09:57:08;;;;;;;19.65;13.45;;;;;;;8.69;63.71;149481.19;5005943;28;20034;-68
2023/04/01 10:00:02;;;;;;;18.13;13.68;;;;;;;8.68;65.21;149479.94;5021287;28;20022;-66
2023/04/01 10:02:53;;;;;;;19.90;13.15;;;;;;;8.62;64.04;149465.84;5021797;28;20314;-65
2023/04/01 10:05:28;;;;;;;20.85;14.02;;;;;;;8.51;63.88;149437.66;5010901;28;20034;-66
2023/04/01 10:08:26;;;;;;;23.40;14.75;;;;;;;8.36;63.48;149400.47;5019306;28;20274;-65
2023/04/01 10:11:17;;;;;;;26.13;13.85;;;;;;;8.00;64.81;149310.88;5003613;28;20106;-66
2023/04/01 10:14:13;;;;;;;20.00;14.07;;;;;;;8.12;65.49;149341.59;5022376;28;20040;-66
2023/04/01 10:16:58;;;;;;;20.13;13.68;;;;;;;8.47;66.10;149427.41;5023443;28;20056;-65
2023/04/01 10:20:03;;;;;;;19.20;14.40;;;;;;;8.48;66.00;149428.69;5011486;28;20073;-67
2023/04/01 10:22:50;;;;;;;22.33;14.20;;;;;;;8.67;64.90;149476.09;4987776;28;20030;-66
2023/04/01 10:25:30;;;;;;;20.13;13.50;;;;;;;8.67;63.12;149477.34;5005385;28;20057;-65
2023/04/01 10:28:26;;;;;;;20.42;14.80;;;;;;;8.90;64.38;149533.72;5022256;28;20062;-66
2023/04/01 10:31:27;;;;;;;19.90;14.30;;;;;;;8.77;62.79;149501.69;5022510;28;20041;-65
2023/04/01 10:34:11;;;;;;;19.38;13.30;;;;;;;8.18;61.07;149354.38;4935813;28;20044;-66
2023/04/01 10:37:22;;;;;;;20.52;13.07;;;;;;;8.43;62.32;149418.38;5022765;28;20326;-66
2023/04/01 10:40:08;;;;;;;20.95;13.43;;;;;;;8.55;61.08;149446.59;5009123;28;20092;-67
2023/04/01 10:42:39;;;;;;;18.10;12.68;;;;;;;8.60;62.26;149460.69;5022208;28;20057;-66
2023/04/01 10:45:25;;;;;;;20.17;12.68;;;;;;;8.68;61.30;149479.94;5022215;28;20092;-68
2023/04/01 10:48:12;;;;;;;14.13;10.60;;;;;;;8.32;59.49;149390.22;4999988;28;20049;-65
2023/04/01 10:51:15;;;;;;;15.50;10.73;;;;;;;8.49;58.48;149431.25;5026620;28;20042;-64
2023/04/01 10:53:59;;;;;;;14.38;10.48;;;;;;;8.57;59.67;149453.03;4953764;28;20031;-65
2023/04/01 10:56:44;;;;;;;15.15;10.40;;;;;;;8.72;59.15;149488.88;5036656;28;20048;-65
2023/04/01 10:59:15;;;;;;;16.58;10.07;;;;;;;9.09;59.29;149582.41;5002913;28;20089;-65
2023/04/01 11:01:53;;;;;;;12.68;8.57;;;;;;;9.05;58.22;149570.81;5021027;28;20033;-67
2023/04/01 11:04:37;;;;;;;11.45;8.88;;;;;;;8.95;55.49;149546.47;5022473;28;20120;-66
2023/04/01 11:07:37;;;;;;;12.82;9.68;;;;;;;9.05;57.93;149570.81;5028224;28;20050;-65
2023/04/01 11:10:27;;;;;;;11.77;9.13;;;;;;;9.20;57.52;149608.00;4979193;28;20038;-67
2023/04/01 11:13:11;;;;;;;11.40;8.93;;;;;;;9.21;56.29;149611.84;5027582;28;20087;-67
2023/04/01 11:16:27;;;;;;;13.27;9.25;;;;;;;9.17;57.11;149601.59;5028824;28;20093;-67
2023/04/01 11:19:17;;;;;;;25.05;9.68;;;;;;;9.20;57.65;149608.00;4988069;28;20431;-67
2023/04/01 11:21:57;;;;;;;13.43;8.73;;;;;;;9.24;57.75;149618.25;5028480;28;20314;-68
2023/04/01 11:24:44;;;;;;;14.13;8.32;;;;;;;9.27;57.35;149627.19;5031491;28;20296;-66
2023/04/01 11:27:12;;;;;;;12.77;8.45;;;;;;;9.10;54.89;149584.91;5025612;28;20052;-66
2023/04/01 11:29:53;;;;;;;12.35;8.77;;;;;;;8.58;56.97;149455.59;5031238;28;20025;-65
2023/04/01 11:33:00;;;;;;;13.50;8.27;;;;;;;8.69;56.46;149481.19;5029133;28;20033;-66
2023/04/01 11:35:41;;;;;;;16.55;7.90;;;;;;;9.06;56.98;149574.66;5026365;28;20026;-66
2023/04/01 11:38:31;;;;;;;15.10;7.13;;;;;;;9.12;54.91;149588.75;5031196;28;20029;-67
2023/04/01 11:41:34;;;;;;;10.65;6.65;;;;;;;9.22;55.30;149614.41;5028756;28;20064;-66
2023/04/01 11:44:19;;;;;;;12.32;7.75;;;;;;;8.89;53.39;149532.44;5032466;28;20035;-66
2023/04/01 11:47:13;;;;;;;12.27;6.80;;;;;;;8.87;55.09;149526.03;5031833;28;20194;-65
2023/04/01 11:49:58;;;;;;;11.85;7.30;;;;;;;8.74;54.08;149495.28;5021457;28;20037;-67
2023/04/01 11:52:44;;;;;;;9.43;7.03;;;;;;;8.74;54.42;149494.00;5019366;28;20029;-66
2023/04/01 11:55:33;;;;;;;9.10;6.35;;;;;;;8.98;56.49;149554.22;5022037;28;20038;-66